createdAt,value
2022-12-16T00:02:13.193Z,57.48
2022-12-16T00:04:46.041Z,57.70
2022-12-16T00:07:17.848Z,57.57
2022-12-16T00:09:51.308Z,57.25
2022-12-16T00:12:23.863Z,57.43
2022-12-16T00:14:56.908Z,57.55
2022-12-16T00:17:30.686Z,57.54
2022-12-16T00:20:04.936Z,57.47
2022-12-16T00:22:36.805Z,57.64
2022-12-16T00:25:10.925Z,57.55
2022-12-16T00:27:42.827Z,57.49
2022-12-16T00:30:16.635Z,57.23
2022-12-16T00:32:49.594Z,57.39
2022-12-16T00:35:26.306Z,57.51
2022-12-16T00:37:58.889Z,57.53
2022-12-16T00:40:31.729Z,57.54
2022-12-16T00:43:06.361Z,57.44
2022-12-16T00:45:40.207Z,57.40
2022-12-16T00:48:13.061Z,57.51
2022-12-16T00:50:47.258Z,57.44
2022-12-16T00:53:20.891Z,57.19
2022-12-16T00:55:53.729Z,57.38
2022-12-16T00:58:25.777Z,57.41
2022-12-16T01:00:59.287Z,57.49
2022-12-16T01:03:31.737Z,57.56
2022-12-16T01:06:06.057Z,57.73
2022-12-16T01:08:38.072Z,57.67
2022-12-16T01:11:13.003Z,57.85
2022-12-16T01:13:45.848Z,57.78
2022-12-16T01:16:19.427Z,57.84
2022-12-16T01:18:56.675Z,57.92
2022-12-16T01:21:29.528Z,57.79
2022-12-16T01:24:03.926Z,57.96
2022-12-16T01:26:40.235Z,58.09
2022-12-16T01:29:12.903Z,57.98
2022-12-16T01:31:47.887Z,57.97
2022-12-16T01:34:20.310Z,57.82
2022-12-16T01:36:53.221Z,57.93
2022-12-16T01:39:30.800Z,57.91
2022-12-16T01:42:05.149Z,57.69
2022-12-16T01:44:38.133Z,57.91
2022-12-16T01:47:17.855Z,57.78
2022-12-16T01:49:54.435Z,57.87
2022-12-16T01:52:31.180Z,57.64
2022-12-16T01:55:07.406Z,57.57
2022-12-16T01:57:44.030Z,57.64
2022-12-16T02:00:18.942Z,57.86
2022-12-16T02:02:51.393Z,58.01
2022-12-16T02:05:27.410Z,57.86
2022-12-16T02:08:03.527Z,57.62
2022-12-16T02:10:49.198Z,57.86
2022-12-16T02:13:30.586Z,57.87
2022-12-16T02:16:13.897Z,57.54
2022-12-16T02:18:55.884Z,57.86
2022-12-16T02:21:50.098Z,57.88
2022-12-16T02:24:57.868Z,57.91
2022-12-16T02:27:55.373Z,58.03
2022-12-16T02:31:00.573Z,57.95
2022-12-16T02:33:48.951Z,58.08
2022-12-16T02:36:26.265Z,58.04
2022-12-16T02:39:02.641Z,57.96
2022-12-16T02:41:45.311Z,57.78
2022-12-16T02:44:19.987Z,57.92
2022-12-16T02:46:57.161Z,57.62
2022-12-16T02:49:48.595Z,57.75
2022-12-16T02:52:26.318Z,58.03
2022-12-16T02:55:05.749Z,58.16
2022-12-16T02:57:58.552Z,58.04
2022-12-16T03:00:39.288Z,58.16
2022-12-16T03:03:17.213Z,58.22
2022-12-16T03:05:52.751Z,58.32
2022-12-16T03:08:41.034Z,58.25
2022-12-16T03:11:18.492Z,58.29
2022-12-16T03:13:54.786Z,58.38
2022-12-16T03:16:30.929Z,58.42
2022-12-16T03:19:08.285Z,58.48
2022-12-16T03:21:43.685Z,58.59
2022-12-16T03:24:18.607Z,58.64
2022-12-16T03:26:57.454Z,58.52
2022-12-16T03:29:41.761Z,58.38
2022-12-16T03:32:20.935Z,58.51
2022-12-16T03:34:54.877Z,58.66
2022-12-16T03:37:30.621Z,58.66
2022-12-16T03:40:05.995Z,58.67
2022-12-16T03:42:40.724Z,58.65
2022-12-16T03:45:17.191Z,58.68
2022-12-16T03:47:57.476Z,58.52
2022-12-16T03:50:34.063Z,58.63
2022-12-16T03:53:09.274Z,58.59
2022-12-16T03:55:42.226Z,58.51
2022-12-16T03:58:15.763Z,58.60
2022-12-16T04:00:49.725Z,58.62
2022-12-16T04:03:24.984Z,58.98
2022-12-16T04:05:57.033Z,58.71
2022-12-16T04:08:33.886Z,58.77
2022-12-16T04:11:27.010Z,58.72
2022-12-16T04:14:26.102Z,58.83
2022-12-16T04:17:17.281Z,58.68
2022-12-16T04:20:19.898Z,58.71
2022-12-16T04:23:12.918Z,58.60
2022-12-16T04:25:46.593Z,58.63
2022-12-16T04:28:20.568Z,58.50
2022-12-16T04:30:53.003Z,58.47
2022-12-16T04:33:46.405Z,58.55
2022-12-16T04:36:49.597Z,58.52
2022-12-16T04:39:44.201Z,58.46
2022-12-16T04:42:35.924Z,58.33
2022-12-16T04:45:28.536Z,58.30
2022-12-16T04:48:21.845Z,58.40
2022-12-16T04:51:14.842Z,58.58
2022-12-16T04:54:06.341Z,58.61
2022-12-16T04:56:56.471Z,58.64
2022-12-16T04:59:46.600Z,58.70
2022-12-16T05:02:38.751Z,58.58
2022-12-16T05:05:31.231Z,58.29
2022-12-16T05:08:23.439Z,58.66
2022-12-16T05:11:13.468Z,58.56
2022-12-16T05:14:04.930Z,58.53
2022-12-16T05:16:58.147Z,58.52
2022-12-16T05:19:51.714Z,58.59
2022-12-16T05:22:45.200Z,58.78
2022-12-16T05:25:37.552Z,59.13
2022-12-16T05:28:29.297Z,59.09
2022-12-16T05:31:22.705Z,59.04
2022-12-16T05:34:13.965Z,59.11
2022-12-16T05:37:04.437Z,59.09
2022-12-16T05:39:54.720Z,59.15
2022-12-16T05:42:46.794Z,59.00
2022-12-16T05:45:37.752Z,59.02
2022-12-16T05:48:31.182Z,59.04
2022-12-16T05:51:22.072Z,59.14
2022-12-16T05:54:12.246Z,59.06
2022-12-16T05:57:03.470Z,59.09
2022-12-16T05:59:53.954Z,59.13
2022-12-16T06:02:47.018Z,59.23
2022-12-16T06:05:39.244Z,59.13
2022-12-16T06:08:32.339Z,58.91
2022-12-16T06:11:26.177Z,58.91
2022-12-16T06:14:16.637Z,58.79
2022-12-16T06:17:09.852Z,58.72
2022-12-16T06:20:01.659Z,58.85
2022-12-16T06:22:54.236Z,58.74
2022-12-16T06:25:44.720Z,58.63
2022-12-16T06:28:33.945Z,58.69
2022-12-16T06:31:26.588Z,58.81
2022-12-16T06:34:17.342Z,58.78
2022-12-16T06:37:09.340Z,58.83
2022-12-16T06:40:00.085Z,59.01
2022-12-16T06:42:53.751Z,59.09
2022-12-16T06:45:44.543Z,59.01
2022-12-16T06:48:37.080Z,59.11
2022-12-16T06:51:27.505Z,59.14
2022-12-16T06:54:18.347Z,58.91
2022-12-16T06:57:10.393Z,58.90
2022-12-16T07:00:00.200Z,58.94
2022-12-16T07:02:52.557Z,58.98
2022-12-16T07:05:43.600Z,59.13
2022-12-16T07:08:34.518Z,59.06
2022-12-16T07:11:27.238Z,59.02
2022-12-16T07:14:17.462Z,59.01
2022-12-16T07:17:05.678Z,58.99
2022-12-16T07:19:56.600Z,59.01
2022-12-16T07:22:54.241Z,59.07
2022-12-16T07:25:53.964Z,59.02
2022-12-16T07:28:47.425Z,58.89
2022-12-16T07:31:39.022Z,59.05
2022-12-16T07:34:31.769Z,59.02
2022-12-16T07:37:27.393Z,58.95
2022-12-16T07:40:19.774Z,58.93
2022-12-16T07:43:13.335Z,58.91
2022-12-16T07:46:06.535Z,58.73
2022-12-16T07:48:57.437Z,58.97
2022-12-16T07:51:47.161Z,58.97
2022-12-16T07:54:36.750Z,59.01
2022-12-16T07:57:29.318Z,59.52
2022-12-16T08:00:23.226Z,59.12
2022-12-16T08:03:16.109Z,59.05
2022-12-16T08:06:05.719Z,58.92
2022-12-16T08:08:56.419Z,58.76
2022-12-16T08:11:46.002Z,58.56
2022-12-16T08:14:37.305Z,58.70
2022-12-16T08:17:28.307Z,58.94
2022-12-16T08:20:18.180Z,58.74
2022-12-16T08:23:10.860Z,58.53
2022-12-16T08:26:01.840Z,58.53
2022-12-16T08:28:55.195Z,58.72
2022-12-16T08:31:45.689Z,58.71
2022-12-16T08:34:37.048Z,58.70
2022-12-16T08:37:28.019Z,58.55
2022-12-16T08:40:34.904Z,58.96
2022-12-16T08:43:25.989Z,59.00
2022-12-16T08:46:17.831Z,59.02
2022-12-16T08:49:08.644Z,58.86
2022-12-16T08:52:02.711Z,58.97
2022-12-16T08:54:53.791Z,59.00
2022-12-16T08:57:44.685Z,58.98
2022-12-16T09:00:38.041Z,59.14
2022-12-16T09:03:29.040Z,59.31
2022-12-16T09:06:20.541Z,59.24
2022-12-16T09:09:11.023Z,59.20
2022-12-16T09:12:00.763Z,59.08
2022-12-16T09:14:50.481Z,59.07
2022-12-16T09:17:43.573Z,58.91
2022-12-16T09:20:37.133Z,59.10
2022-12-16T09:23:27.441Z,58.86
2022-12-16T09:26:20.470Z,58.91
2022-12-16T09:29:12.512Z,58.66
2022-12-16T09:32:02.910Z,58.59
2022-12-16T09:34:53.296Z,58.42
2022-12-16T09:37:43.560Z,58.37
2022-12-16T09:40:36.416Z,57.94
2022-12-16T09:43:39.676Z,57.91
2022-12-16T09:46:34.795Z,57.97
2022-12-16T09:49:33.980Z,58.23
2022-12-16T09:52:27.467Z,58.43
2022-12-16T09:55:18.429Z,58.07
2022-12-16T09:58:10.384Z,58.21
2022-12-16T10:01:01.508Z,58.18
2022-12-16T10:03:57.986Z,58.43
2022-12-16T10:07:04.285Z,58.16
2022-12-16T10:10:01.638Z,58.75
2022-12-16T10:12:58.862Z,58.74
2022-12-16T10:15:55.401Z,58.64
2022-12-16T10:19:00.480Z,58.38
2022-12-16T10:21:57.076Z,58.43
2022-12-16T10:24:55.870Z,58.61
2022-12-16T10:27:53.501Z,58.31
2022-12-16T10:30:48.052Z,58.61
2022-12-16T10:33:39.934Z,58.42
2022-12-16T10:36:33.711Z,58.54
2022-12-16T10:39:27.366Z,58.10
2022-12-16T10:42:23.867Z,58.10
2022-12-16T10:45:17.485Z,57.55
2022-12-16T10:48:08.653Z,57.92
2022-12-16T10:51:02.183Z,58.07
2022-12-16T10:53:55.392Z,58.30
2022-12-16T10:57:07.641Z,57.35
2022-12-16T10:59:59.991Z,57.60
2022-12-16T11:02:51.170Z,58.07
2022-12-16T11:05:51.938Z,57.48
2022-12-16T11:08:47.376Z,57.93
2022-12-16T11:11:44.877Z,58.02
2022-12-16T11:15:05.545Z,57.52
2022-12-16T11:17:56.228Z,57.27
2022-12-16T11:20:48.652Z,57.26
2022-12-16T11:23:41.537Z,57.22
2022-12-16T11:26:37.388Z,56.58
2022-12-16T11:29:32.356Z,57.02
2022-12-16T11:32:25.772Z,57.37
2022-12-16T11:35:20.460Z,57.35
2022-12-16T11:38:12.034Z,57.36
2022-12-16T11:41:06.156Z,57.46
2022-12-16T11:43:59.642Z,57.46
2022-12-16T11:46:53.050Z,57.14
2022-12-16T11:49:51.419Z,57.09
2022-12-16T11:52:44.616Z,56.89
2022-12-16T11:58:57.577Z,56.27
2022-12-16T12:01:51.889Z,56.44
2022-12-16T12:04:45.834Z,56.79
2022-12-16T12:07:49.832Z,57.10
2022-12-16T12:11:20.508Z,57.26
2022-12-16T12:14:22.595Z,57.03
2022-12-16T12:17:23.246Z,56.75
2022-12-16T12:20:23.307Z,56.83
2022-12-16T12:23:13.993Z,56.79
2022-12-16T12:26:10.555Z,56.36
2022-12-16T12:29:24.522Z,56.45
2022-12-16T12:32:20.262Z,56.74
2022-12-16T12:35:15.755Z,57.30
2022-12-16T12:38:17.497Z,57.27
2022-12-16T12:41:12.258Z,56.77
2022-12-16T12:44:10.420Z,56.67
2022-12-16T12:47:07.855Z,56.54
2022-12-16T12:50:05.731Z,56.75
2022-12-16T12:53:23.416Z,57.07
2022-12-16T12:56:23.326Z,57.50
2022-12-16T12:59:16.418Z,57.22
2022-12-16T13:02:07.544Z,57.46
2022-12-16T13:05:00.983Z,57.50
2022-12-16T13:07:54.698Z,57.28
2022-12-16T13:10:58.029Z,56.78
2022-12-16T13:13:56.514Z,57.12
2022-12-16T13:17:23.436Z,57.57
2022-12-16T13:20:17.773Z,57.90
2022-12-16T13:23:12.006Z,58.00
2022-12-16T13:26:12.952Z,57.65
2022-12-16T13:29:26.868Z,57.58
2022-12-16T13:32:23.398Z,57.72
2022-12-16T13:35:21.012Z,57.71
2022-12-16T13:38:29.768Z,57.89
2022-12-16T13:41:22.893Z,57.64
2022-12-16T13:44:13.918Z,57.36
2022-12-16T13:47:08.901Z,57.36
2022-12-16T13:50:05.476Z,57.53
2022-12-16T13:53:16.873Z,57.40
2022-12-16T13:56:15.255Z,57.75
2022-12-16T13:59:08.472Z,57.57
2022-12-16T14:02:14.120Z,57.49
2022-12-16T14:05:07.706Z,57.38
2022-12-16T14:08:01.372Z,57.59
2022-12-16T14:10:54.426Z,57.50
2022-12-16T14:13:55.671Z,57.28
2022-12-16T14:16:56.692Z,57.53
2022-12-16T14:19:53.910Z,57.60
2022-12-16T14:22:56.145Z,57.72
2022-12-16T14:25:52.001Z,57.64
2022-12-16T14:28:45.775Z,57.56
2022-12-16T14:31:38.958Z,57.81
2022-12-16T14:34:34.936Z,57.94
2022-12-16T14:37:34.776Z,57.92
2022-12-16T14:40:39.388Z,57.89
2022-12-16T14:43:35.742Z,58.05
2022-12-16T14:46:31.202Z,58.17
2022-12-16T14:49:23.517Z,58.34
2022-12-16T14:52:15.242Z,58.53
2022-12-16T14:55:08.682Z,58.72
2022-12-16T14:57:59.102Z,58.44
2022-12-16T15:00:55.965Z,58.41
2022-12-16T15:03:56.203Z,58.32
2022-12-16T15:06:49.196Z,58.31
2022-12-16T15:09:43.537Z,58.34
2022-12-16T15:12:36.635Z,58.23
2022-12-16T15:15:33.433Z,58.23
2022-12-16T15:18:33.594Z,58.25
2022-12-16T15:21:24.545Z,58.18
2022-12-16T15:24:15.632Z,58.04
2022-12-16T15:27:08.748Z,57.98
2022-12-16T15:30:02.757Z,58.22
2022-12-16T15:32:55.942Z,58.30
2022-12-16T15:35:50.456Z,58.32
2022-12-16T15:38:48.797Z,58.36
2022-12-16T15:41:52.461Z,58.29
2022-12-16T15:44:47.096Z,58.38
2022-12-16T15:48:05.808Z,58.26
2022-12-16T15:50:56.389Z,58.21
2022-12-16T15:53:52.485Z,58.22
2022-12-16T15:56:45.556Z,58.27
2022-12-16T15:59:47.960Z,58.26
2022-12-16T16:02:42.811Z,58.34
2022-12-16T16:05:38.544Z,58.26
2022-12-16T16:08:31.183Z,58.34
2022-12-16T16:11:22.640Z,58.35
2022-12-16T16:14:14.500Z,58.16
2022-12-16T16:17:04.624Z,58.18
2022-12-16T16:19:58.848Z,58.35
2022-12-16T16:22:59.092Z,58.43
2022-12-16T16:25:50.152Z,58.53
2022-12-16T16:28:40.288Z,58.64
2022-12-16T16:31:34.642Z,58.54
2022-12-16T16:34:32.700Z,58.55
2022-12-16T16:37:28.269Z,58.63
2022-12-16T16:40:19.738Z,58.61
2022-12-16T16:43:09.926Z,58.68
2022-12-16T16:46:01.638Z,58.42
2022-12-16T16:48:55.099Z,58.43
2022-12-16T16:51:45.417Z,58.43
2022-12-16T16:54:36.157Z,58.55
2022-12-16T16:57:32.146Z,58.65
2022-12-16T17:00:23.837Z,58.57
2022-12-16T17:03:15.022Z,58.90
2022-12-16T17:06:05.899Z,59.01
2022-12-16T17:08:58.957Z,58.95
2022-12-16T17:11:52.576Z,59.04
2022-12-16T17:14:45.848Z,59.11
2022-12-16T17:17:37.068Z,59.11
2022-12-16T17:20:38.158Z,59.07
2022-12-16T17:23:28.608Z,58.82
2022-12-16T17:26:34.277Z,59.02
2022-12-16T17:29:29.910Z,59.04
2022-12-16T17:32:23.833Z,59.20
2022-12-16T17:35:16.069Z,59.30
2022-12-16T17:38:13.217Z,59.16
2022-12-16T17:41:04.291Z,59.25
2022-12-16T17:43:57.816Z,59.36
2022-12-16T17:46:55.981Z,59.46
2022-12-16T17:49:46.983Z,59.35
2022-12-16T17:52:37.415Z,59.35
2022-12-16T17:55:31.264Z,59.66
2022-12-16T17:58:21.333Z,59.68
2022-12-16T18:01:15.553Z,59.76
2022-12-16T18:04:10.074Z,59.68
2022-12-16T18:07:04.392Z,59.66
2022-12-16T18:09:55.631Z,59.48
2022-12-16T18:12:49.080Z,59.28
2022-12-16T18:15:39.657Z,59.34
2022-12-16T18:18:46.413Z,59.56
2022-12-16T18:21:37.238Z,59.47
2022-12-16T18:24:35.017Z,59.65
2022-12-16T18:27:26.132Z,59.75
2022-12-16T18:30:20.034Z,59.52
2022-12-16T18:33:10.645Z,59.28
2022-12-16T18:36:06.473Z,59.12
2022-12-16T18:38:57.340Z,59.09
2022-12-16T18:41:50.706Z,59.10
2022-12-16T18:44:40.820Z,58.84
2022-12-16T18:47:43.045Z,58.98
2022-12-16T18:50:37.844Z,59.07
2022-12-16T18:53:32.057Z,59.13
2022-12-16T18:56:25.023Z,59.24
2022-12-16T18:59:19.294Z,59.06
2022-12-16T19:02:11.254Z,59.05
2022-12-16T19:05:05.907Z,59.16
2022-12-16T19:07:56.531Z,59.28
2022-12-16T19:10:47.282Z,59.16
2022-12-16T19:13:38.682Z,59.28
2022-12-16T19:16:31.889Z,59.63
2022-12-16T19:19:23.669Z,59.92
2022-12-16T19:22:15.978Z,59.97
2022-12-16T19:25:06.687Z,59.92
2022-12-16T19:27:56.891Z,60.11
2022-12-16T19:30:48.792Z,60.04
2022-12-16T19:33:51.905Z,59.96
2022-12-16T19:36:47.076Z,60.06
2022-12-16T19:39:41.516Z,59.88
2022-12-16T19:42:32.075Z,59.70
2022-12-16T19:45:22.878Z,59.93
2022-12-16T19:48:16.332Z,60.16
2022-12-16T19:51:09.542Z,59.76
2022-12-16T19:54:03.631Z,59.67
2022-12-16T19:57:04.523Z,59.77
2022-12-16T19:59:54.741Z,60.08
2022-12-16T20:02:49.076Z,60.19
2022-12-16T20:05:40.919Z,60.37
2022-12-16T20:08:34.434Z,60.38
2022-12-16T20:11:27.516Z,60.11
2022-12-16T20:14:19.706Z,60.39
2022-12-16T20:17:10.754Z,60.31
2022-12-16T20:20:01.092Z,60.16
2022-12-16T20:22:53.993Z,60.06
2022-12-16T20:25:48.059Z,60.14
2022-12-16T20:28:39.672Z,60.27
2022-12-16T20:31:30.516Z,60.45
2022-12-16T20:34:21.569Z,60.69
2022-12-16T20:37:12.600Z,60.74
2022-12-16T20:40:05.793Z,60.97
2022-12-16T20:43:00.449Z,61.09
2022-12-16T20:45:56.193Z,61.01
2022-12-16T20:48:48.758Z,61.17
2022-12-16T20:51:40.900Z,61.51
2022-12-16T20:54:33.541Z,61.68
2022-12-16T20:57:24.307Z,61.80
2022-12-16T21:00:17.545Z,61.81
2022-12-16T21:03:10.723Z,61.78
2022-12-16T21:06:16.803Z,61.69
2022-12-16T21:09:11.489Z,61.74
2022-12-16T21:12:03.728Z,61.59
2022-12-16T21:14:54.374Z,61.65
2022-12-16T21:17:47.076Z,61.59
2022-12-16T21:20:38.432Z,61.41
2022-12-16T21:23:31.452Z,61.23
2022-12-16T21:26:23.301Z,61.03
2022-12-16T21:29:13.938Z,60.99
2022-12-16T21:32:04.744Z,60.79
2022-12-16T21:34:54.622Z,60.95
2022-12-16T21:37:49.366Z,61.16
2022-12-16T21:40:42.564Z,61.25
2022-12-16T21:43:41.129Z,61.49
2022-12-16T21:46:34.484Z,61.65
2022-12-16T21:49:27.062Z,61.63
2022-12-16T21:52:18.574Z,61.65
2022-12-16T21:55:11.308Z,61.54
2022-12-16T21:58:05.127Z,61.38
2022-12-16T22:01:00.554Z,61.49
2022-12-16T22:03:56.777Z,61.22
2022-12-16T22:06:50.554Z,61.29
2022-12-16T22:09:43.005Z,61.37
2022-12-16T22:12:37.789Z,61.54
2022-12-16T22:15:30.565Z,61.39
2022-12-16T22:18:23.900Z,61.34
2022-12-16T22:21:19.125Z,61.31
2022-12-16T22:24:11.413Z,60.94
2022-12-16T22:27:04.662Z,61.03
2022-12-16T22:29:56.019Z,61.18
2022-12-16T22:32:49.513Z,61.19
2022-12-16T22:35:42.053Z,61.27
2022-12-16T22:38:32.061Z,61.43
2022-12-16T22:41:25.985Z,61.45
2022-12-16T22:44:17.537Z,61.75
2022-12-16T22:47:07.856Z,61.67
2022-12-16T22:49:59.604Z,61.89
2022-12-16T22:53:06.689Z,61.80
2022-12-16T22:56:01.913Z,61.90
2022-12-16T22:58:55.015Z,61.65
2022-12-16T23:01:46.476Z,61.62
2022-12-16T23:04:36.570Z,61.46
2022-12-16T23:07:26.448Z,61.60
2022-12-16T23:10:20.877Z,61.35
2022-12-16T23:13:11.527Z,61.35
2022-12-16T23:16:04.178Z,61.29
2022-12-16T23:18:59.710Z,61.14
2022-12-16T23:21:51.576Z,61.02
2022-12-16T23:24:45.325Z,60.86
2022-12-16T23:27:36.025Z,60.98
2022-12-16T23:30:29.682Z,61.20
2022-12-16T23:33:23.991Z,60.90
2022-12-16T23:36:14.052Z,60.96
2022-12-16T23:39:06.401Z,60.99
2022-12-16T23:41:58.226Z,60.71
2022-12-16T23:44:56.250Z,60.90
2022-12-16T23:47:50.033Z,60.87
2022-12-16T23:50:41.084Z,61.00
2022-12-16T23:53:31.490Z,60.92
2022-12-16T23:56:23.977Z,60.73
2022-12-16T23:59:13.346Z,60.74
